Time;durP1;ratioP1;P1;durP2;ratioP2;P2;SDS_P1;SDS_P2;PMS_P1;PMS_P2;Temp;Humidity;BMP_temperature;BMP_pressure;BME280_temperature;BME280_humidity;BME280_pressure;Samples;Min_cycle;Max_cycle;Signal;HPM_P1;HPM_P2
2022/10/14 00:00:06;;;;;;;14.85;9.15;;;;;;;16.35;73.93;99691.59;337838;29;1690;-70
2022/10/14 00:00:18;;;;;;;14.48;9.02;;;;;;;16.35;73.76;99686.34;338252;29;1396;-73
2022/10/14 00:00:31;;;;;;;13.15;8.77;;;;;;;16.38;73.88;99695.84;337556;29;1858;-76
2022/10/14 00:00:43;;;;;;;13.88;8.95;;;;;;;16.37;73.67;99687.09;337328;29;1051;-73
2022/10/14 00:01:03;;;;;;;14.02;8.90;;;;;;;16.38;73.94;99687.97;337172;29;1064;-73
2022/10/14 00:01:18;;;;;;;14.90;9.27;;;;;;;16.35;73.95;99686.34;339349;29;1839;-73
2022/10/14 00:01:31;;;;;;;15.07;9.20;;;;;;;16.35;73.77;99683.72;338720;29;1895;-71
2022/10/14 00:01:43;;;;;;;14.77;9.13;;;;;;;16.36;73.86;99682.81;339791;29;1097;-71
2022/10/14 00:01:55;;;;;;;15.00;9.23;;;;;;;16.35;73.77;99685.50;338550;29;1942;-72
2022/10/14 00:02:07;;;;;;;13.48;8.98;;;;;;;16.27;74.07;99685.09;339739;29;1517;-73
2022/10/14 00:02:19;;;;;;;14.18;9.02;;;;;;;16.29;74.11;99686.69;339970;29;1369;-73
2022/10/14 00:02:31;;;;;;;15.18;9.20;;;;;;;16.26;73.90;99679.00;339261;29;2132;-73
2022/10/14 00:02:43;;;;;;;17.48;9.40;;;;;;;16.27;74.15;99688.53;338995;29;1863;-73
2022/10/14 00:02:55;;;;;;;18.17;9.60;;;;;;;16.27;74.11;99683.31;338670;29;1827;-73
2022/10/14 00:03:07;;;;;;;17.50;9.68;;;;;;;16.27;74.15;99683.31;338568;29;1122;-73
2022/10/14 00:03:19;;;;;;;16.20;9.80;;;;;;;16.28;73.91;99685.00;338790;29;1724;-73
2022/10/14 00:03:31;;;;;;;17.25;9.68;;;;;;;16.31;74.10;99679.56;339811;29;1231;-72
2022/10/14 00:03:44;;;;;;;17.20;9.50;;;;;;;16.32;74.01;99681.28;339825;29;1168;-72
2022/10/14 00:03:56;;;;;;;15.77;9.63;;;;;;;16.33;73.94;99682.94;339811;29;1266;-73
2022/10/14 00:04:07;;;;;;;16.08;9.60;;;;;;;16.35;73.72;99680.25;340052;29;1043;-72
2022/10/14 00:04:19;;;;;;;15.90;9.52;;;;;;;16.35;73.77;99683.72;339667;29;1372;-72
2022/10/14 00:04:31;;;;;;;16.02;9.32;;;;;;;16.33;73.87;99682.94;339860;29;1223;-72
2022/10/14 00:04:43;;;;;;;17.20;9.95;;;;;;;16.34;73.95;99682.03;339636;29;1011;-73
2022/10/14 00:04:55;;;;;;;17.27;9.88;;;;;;;16.35;73.72;99675.84;339861;29;1192;-72
2022/10/14 00:05:08;;;;;;;16.10;9.70;;;;;;;16.38;73.90;99675.69;339814;29;1106;-73
2022/10/14 00:05:20;;;;;;;16.58;9.50;;;;;;;16.40;73.64;99677.38;339318;29;1233;-74
2022/10/14 00:05:32;;;;;;;15.75;9.23;;;;;;;16.42;73.72;99683.38;338419;29;949;-76
2022/10/14 00:05:44;;;;;;;12.95;9.15;;;;;;;16.42;74.03;99681.63;338407;29;1061;-76
2022/10/14 00:05:56;;;;;;;15.52;9.52;;;;;;;16.42;73.68;99680.75;338493;29;1297;-75
2022/10/14 00:06:13;;;;;;;17.48;9.88;;;;;;;16.43;73.71;99677.19;338500;29;1260;-73
2022/10/14 00:06:28;;;;;;;16.98;9.43;;;;;;;16.43;73.60;99682.44;338113;29;1431;-71
2022/10/14 00:06:40;;;;;;;18.88;9.43;;;;;;;16.44;73.60;99684.13;338345;29;1070;-71
2022/10/14 00:06:52;;;;;;;20.17;9.50;;;;;;;16.44;73.68;99679.75;338468;29;1048;-71
2022/10/14 00:07:04;;;;;;;18.08;9.20;;;;;;;16.45;73.63;99680.59;338418;29;1269;-71
2022/10/14 00:07:16;;;;;;;16.10;8.98;;;;;;;16.46;73.71;99683.13;338421;29;1397;-71
2022/10/14 00:07:28;;;;;;;15.93;8.95;;;;;;;16.48;73.80;99677.78;337573;29;1870;-71
2022/10/14 00:07:40;;;;;;;15.73;9.07;;;;;;;16.47;73.82;99683.97;338020;29;2138;-71
2022/10/14 00:07:52;;;;;;;15.48;9.27;;;;;;;16.45;73.69;99680.59;338180;29;1502;-71
2022/10/14 00:08:04;;;;;;;14.25;9.45;;;;;;;16.45;73.66;99680.59;338537;29;1191;-71
2022/10/14 00:08:16;;;;;;;13.25;9.00;;;;;;;16.47;73.58;99686.59;338247;29;1857;-72
2022/10/14 00:08:28;;;;;;;11.27;8.10;;;;;;;16.47;73.75;99683.97;338334;29;1065;-71
2022/10/14 00:08:42;;;;;;;12.38;8.25;;;;;;;16.46;73.64;99687.50;338454;29;1099;-71
2022/10/14 00:08:54;;;;;;;13.60;8.90;;;;;;;16.47;73.86;99686.59;338490;29;1012;-71
2022/10/14 00:09:08;;;;;;;13.95;8.75;;;;;;;16.48;73.62;99691.75;338437;29;1080;-71
2022/10/14 00:09:20;;;;;;;13.57;8.57;;;;;;;16.50;73.78;99684.66;338338;29;1354;-71
2022/10/14 00:09:32;;;;;;;13.02;8.57;;;;;;;16.51;73.74;99690.72;338444;29;1282;-71
2022/10/14 00:09:45;;;;;;;12.25;8.45;;;;;;;16.52;73.57;99681.91;338515;29;1012;-71
2022/10/14 00:09:57;;;;;;;13.63;8.73;;;;;;;16.51;73.49;99682.88;337701;29;2146;-71
2022/10/14 00:10:09;;;;;;;14.50;8.85;;;;;;;16.52;73.57;99679.28;338265;29;1075;-71
2022/10/14 00:10:21;;;;;;;16.67;9.38;;;;;;;16.51;73.60;99683.69;338567;29;1371;-71
2022/10/14 00:10:36;;;;;;;19.75;9.70;;;;;;;16.49;73.58;99682.09;338068;29;1717;-71
2022/10/14 00:10:48;;;;;;;18.67;9.70;;;;;;;16.47;73.39;99689.22;338724;29;1021;-72
2022/10/14 00:11:15;;;;;;;17.20;9.38;;;;;;;16.45;73.72;99685.84;338486;29;1279;-73
2022/10/14 00:11:29;;;;;;;13.55;9.02;;;;;;;16.44;73.60;99684.13;338699;29;1073;-73
2022/10/14 00:11:41;;;;;;;13.68;8.95;;;;;;;16.44;73.85;99690.25;338736;29;1119;-73
2022/10/14 00:11:53;;;;;;;14.15;9.13;;;;;;;16.43;73.71;99687.69;338852;29;1182;-73
2022/10/14 00:12:05;;;;;;;12.93;8.90;;;;;;;16.44;73.66;99684.13;338982;29;1050;-73
2022/10/14 00:12:17;;;;;;;13.30;9.15;;;;;;;16.42;73.46;99684.25;339527;29;1327;-71
2022/10/14 00:12:29;;;;;;;14.75;9.57;;;;;;;16.41;73.74;99686.94;339666;29;1282;-71
2022/10/14 00:12:41;;;;;;;15.73;9.43;;;;;;;16.42;73.64;99681.63;339524;29;1260;-71
2022/10/14 00:12:53;;;;;;;15.88;9.07;;;;;;;16.43;73.55;99687.69;339586;29;1281;-71
2022/10/14 00:13:05;;;;;;;15.38;9.07;;;;;;;16.44;73.31;99684.13;339664;29;1259;-73
2022/10/14 00:13:17;;;;;;;15.75;9.20;;;;;;;16.45;73.50;99685.84;338895;29;1752;-73
2022/10/14 00:13:29;;;;;;;14.18;9.23;;;;;;;16.45;73.43;99685.84;339285;29;1735;-72
2022/10/14 00:13:41;;;;;;;14.40;8.73;;;;;;;16.46;73.71;99682.25;339603;29;1176;-72
2022/10/14 00:13:55;;;;;;;14.20;8.75;;;;;;;16.46;73.51;99690.13;339555;29;1739;-73
2022/10/14 00:14:11;;;;;;;14.80;9.02;;;;;;;16.46;73.51;99687.50;339688;29;1090;-73
2022/10/14 00:14:23;;;;;;;14.80;9.18;;;;;;;16.43;73.45;99693.78;338549;29;1525;-73
2022/10/14 00:14:35;;;;;;;13.90;9.32;;;;;;;16.41;73.58;99685.16;338761;29;1064;-73
2022/10/14 00:14:47;;;;;;;13.93;9.20;;;;;;;16.43;73.53;99687.69;338670;29;1088;-73
2022/10/14 00:14:59;;;;;;;12.80;8.98;;;;;;;16.42;73.34;99686.00;338782;29;1051;-73
2022/10/14 00:15:11;;;;;;;13.10;8.68;;;;;;;16.43;73.49;99682.44;338409;29;1076;-73
2022/10/14 00:15:23;;;;;;;14.02;8.45;;;;;;;16.44;73.43;99689.38;338308;29;1699;-73
2022/10/14 00:15:39;;;;;;;13.88;8.57;;;;;;;16.44;73.32;99689.38;338363;29;1051;-73
2022/10/14 00:15:51;;;;;;;12.27;8.68;;;;;;;16.42;73.33;99686.84;338360;29;1247;-73
2022/10/14 00:16:05;;;;;;;13.20;8.63;;;;;;;16.42;73.48;99691.25;337484;29;1055;-73
2022/10/14 00:16:20;;;;;;;15.13;8.93;;;;;;;16.36;73.47;99682.81;337510;29;1287;-73
2022/10/14 00:16:35;;;;;;;16.13;9.18;;;;;;;16.36;73.65;99690.66;338402;29;1150;-73
2022/10/14 00:16:50;;;;;;;14.07;9.43;;;;;;;16.38;73.59;99685.34;338761;29;1254;-73
2022/10/14 00:17:02;;;;;;;13.43;9.18;;;;;;;16.38;73.79;99688.81;337533;29;2161;-74
2022/10/14 00:17:14;;;;;;;13.90;9.02;;;;;;;16.40;73.44;99687.84;338565;29;1249;-74
2022/10/14 00:17:26;;;;;;;14.73;9.00;;;;;;;16.40;73.56;99685.22;337088;29;1022;-74
2022/10/14 00:17:38;;;;;;;17.27;9.35;;;;;;;16.41;73.80;99689.56;337092;29;1324;-72
2022/10/14 00:17:50;;;;;;;16.17;9.23;;;;;;;16.35;73.58;99686.34;337160;29;1138;-74
2022/10/14 00:18:02;;;;;;;15.48;9.52;;;;;;;16.35;73.59;99691.59;337375;29;1804;-72
2022/10/14 00:18:14;;;;;;;14.97;9.50;;;;;;;16.34;73.72;99687.28;338734;29;1988;-73
2022/10/14 00:18:27;;;;;;;15.80;9.38;;;;;;;16.35;73.85;99688.97;337841;29;2107;-73
2022/10/14 00:18:38;;;;;;;18.27;9.75;;;;;;;16.35;73.84;99691.59;337970;29;1917;-73
2022/10/14 00:18:50;;;;;;;18.10;9.98;;;;;;;16.33;73.93;99685.56;338951;29;1230;-71
2022/10/14 00:19:03;;;;;;;18.67;10.07;;;;;;;16.30;73.75;99688.38;338679;29;1625;-71
2022/10/14 00:19:15;;;;;;;17.63;10.32;;;;;;;16.27;73.98;99685.91;338515;29;1161;-71
2022/10/14 00:19:27;;;;;;;16.40;9.93;;;;;;;16.27;74.20;99688.53;337832;29;1079;-73
2022/10/14 00:19:39;;;;;;;16.17;10.18;;;;;;;16.27;74.03;99683.31;337451;29;1178;-74
2022/10/14 00:19:51;;;;;;;15.07;9.70;;;;;;;16.23;74.34;99691.44;337008;29;1307;-75
2022/10/14 00:20:05;;;;;;;16.45;9.82;;;;;;;16.25;74.27;99694.81;337019;29;1932;-74
2022/10/14 00:20:17;;;;;;;15.55;9.73;;;;;;;16.26;74.08;99692.13;338646;29;1381;-73
2022/10/14 00:20:29;;;;;;;13.75;9.35;;;;;;;16.26;74.29;99699.13;338191;29;2772;-73
2022/10/14 00:20:41;;;;;;;13.02;9.35;;;;;;;16.26;74.32;99692.13;338662;29;1796;-73
2022/10/14 00:21:00;;;;;;;12.32;9.40;;;;;;;16.24;74.17;99688.72;337610;29;1320;-73
2022/10/14 00:21:12;;;;;;;15.50;9.65;;;;;;;16.22;74.46;99690.59;337015;29;1175;-74
2022/10/14 00:21:24;;;;;;;17.08;9.90;;;;;;;16.24;74.58;99693.97;337544;29;1371;-72
2022/10/14 00:21:38;;;;;;;17.35;9.88;;;;;;;16.24;74.53;99688.72;338782;29;1027;-74
2022/10/14 00:21:50;;;;;;;17.70;9.93;;;;;;;16.25;74.48;99690.41;338364;29;1061;-74
2022/10/14 00:22:02;;;;;;;17.55;9.98;;;;;;;16.25;74.42;99695.66;338325;29;1073;-72
2022/10/14 00:22:14;;;;;;;17.70;9.90;;;;;;;16.22;74.53;99690.59;338435;29;1158;-73
2022/10/14 00:22:26;;;;;;;17.25;9.75;;;;;;;16.23;74.67;99689.66;338439;29;1159;-73
2022/10/14 00:22:38;;;;;;;18.73;10.13;;;;;;;16.23;74.54;99696.69;337660;29;1903;-73
2022/10/14 00:22:50;;;;;;;17.98;9.85;;;;;;;16.25;74.25;99693.03;337131;29;1108;-72
2022/10/14 00:23:02;;;;;;;17.23;9.85;;;;;;;16.23;74.86;99694.88;336041;29;1178;-73
2022/10/14 00:23:14;;;;;;;16.98;9.77;;;;;;;16.22;74.81;99698.47;336824;29;1577;-74
2022/10/14 00:23:27;;;;;;;16.20;9.55;;;;;;;16.22;74.54;99695.84;336749;29;1915;-73
2022/10/14 00:23:39;;;;;;;16.17;9.65;;;;;;;16.23;74.59;99689.66;336990;29;1333;-72
2022/10/14 00:23:51;;;;;;;17.67;9.63;;;;;;;16.25;74.78;99690.41;337306;29;1078;-71
2022/10/14 00:24:03;;;;;;;19.45;9.52;;;;;;;16.21;74.90;99688.88;336769;29;1245;-71
2022/10/14 00:24:16;;;;;;;18.25;9.80;;;;;;;16.22;74.83;99692.34;337563;29;1067;-75
2022/10/14 00:24:27;;;;;;;15.57;9.68;;;;;;;16.24;74.80;99693.97;335291;29;1086;-74
2022/10/14 00:24:39;;;;;;;14.95;9.52;;;;;;;16.22;74.90;99689.72;335786;29;1052;-74
2022/10/14 00:24:51;;;;;;;17.40;9.57;;;;;;;16.24;74.71;99693.97;336124;29;1044;-73
2022/10/14 00:25:04;;;;;;;16.75;9.82;;;;;;;16.21;74.75;99694.13;336410;29;1193;-73
2022/10/14 00:25:16;;;;;;;15.07;10.07;;;;;;;16.22;74.80;99690.59;339312;29;1150;-77
2022/10/14 00:25:28;;;;;;;15.68;10.35;;;;;;;16.20;74.80;99688.97;338479;29;1059;-72
2022/10/14 00:25:40;;;;;;;18.27;10.38;;;;;;;16.23;74.68;99692.28;338230;29;1212;-73
2022/10/14 00:25:52;;;;;;;17.63;9.77;;;;;;;16.25;74.92;99694.81;338343;29;1109;-72
2022/10/14 00:26:05;;;;;;;15.95;9.13;;;;;;;16.28;74.83;99690.25;338542;29;1150;-73
2022/10/14 00:26:20;;;;;;;14.10;8.70;;;;;;;16.30;74.99;99687.56;337199;29;1403;-74
2022/10/14 00:26:35;;;;;;;15.10;9.05;;;;;;;16.30;75.40;99693.63;338496;29;1235;-75
2022/10/14 00:26:47;;;;;;;14.50;9.20;;;;;;;16.31;75.14;99690.06;337827;29;1570;-74
2022/10/14 00:26:59;;;;;;;16.27;9.43;;;;;;;16.32;74.90;99691.78;338505;29;1016;-75
2022/10/14 00:27:10;;;;;;;15.23;9.30;;;;;;;16.30;75.07;99688.38;338432;29;1055;-75
2022/10/14 00:27:23;;;;;;;13.73;9.32;;;;;;;16.31;75.19;99697.94;338427;29;1190;-71
2022/10/14 00:27:35;;;;;;;14.40;9.27;;;;;;;16.31;74.94;99695.31;337325;29;2984;-71
2022/10/14 00:27:47;;;;;;;15.98;9.65;;;;;;;16.32;75.07;99694.41;337301;29;1252;-72
2022/10/14 00:28:02;;;;;;;17.55;10.18;;;;;;;16.32;74.98;99697.03;337303;29;1252;-72
2022/10/14 00:28:14;;;;;;;16.73;9.57;;;;;;;16.31;75.08;99695.31;337107;29;1089;-72
2022/10/14 00:28:27;;;;;;;16.40;9.05;;;;;;;16.28;74.91;99695.50;336863;29;1035;-72
2022/10/14 00:28:39;;;;;;;19.25;10.05;;;;;;;16.27;75.43;99691.16;337857;29;1726;-73
2022/10/14 00:28:51;;;;;;;18.45;10.13;;;;;;;16.26;75.37;99702.59;337465;29;1308;-73
2022/10/14 00:29:06;;;;;;;13.65;9.32;;;;;;;16.25;75.41;99703.53;338371;29;1195;-73
2022/10/14 00:29:18;;;;;;;12.23;8.77;;;;;;;16.22;75.47;99695.84;338312;29;1323;-74
2022/10/14 00:29:30;;;;;;;13.27;8.70;;;;;;;16.25;75.21;99706.16;337503;29;1254;-74
2022/10/14 00:29:42;;;;;;;13.65;8.50;;;;;;;16.25;75.34;99695.66;337222;29;1215;-72
2022/10/14 00:29:54;;;;;;;12.73;8.35;;;;;;;16.27;75.19;99693.78;338255;29;1158;-72
2022/10/14 00:30:07;;;;;;;13.75;8.57;;;;;;;16.31;75.47;99694.47;339738;29;1020;-72
2022/10/14 00:30:19;;;;;;;13.50;8.23;;;;;;;16.32;75.53;99696.19;338060;29;1589;-72
2022/10/14 00:30:31;;;;;;;12.98;8.02;;;;;;;16.33;75.61;99700.47;338289;29;1668;-72
2022/10/14 00:30:59;;;;;;;12.20;8.10;;;;;;;16.33;75.50;99690.81;338568;29;1500;-72
2022/10/14 00:31:11;;;;;;;18.20;9.43;;;;;;;16.34;75.59;99697.78;338915;29;1329;-73
2022/10/14 00:31:23;;;;;;;20.73;9.88;;;;;;;16.33;75.56;99696.06;338170;29;1674;-73
2022/10/14 00:31:35;;;;;;;18.83;9.73;;;;;;;16.33;75.57;99692.59;338757;29;751;-73
2022/10/14 00:31:50;;;;;;;17.17;9.50;;;;;;;16.30;75.50;99693.63;338189;29;1185;-73
2022/10/14 00:32:02;;;;;;;15.98;9.23;;;;;;;16.32;75.36;99699.63;338137;29;1055;-73
2022/10/14 00:32:14;;;;;;;15.02;9.40;;;;;;;16.32;75.43;99697.03;338374;29;1072;-73
2022/10/14 00:32:26;;;;;;;13.82;9.18;;;;;;;16.34;75.31;99700.41;337876;29;1757;-72
2022/10/14 00:32:38;;;;;;;13.48;9.07;;;;;;;16.35;75.34;99702.06;339129;29;2012;-72
2022/10/14 00:32:50;;;;;;;12.13;8.90;;;;;;;16.35;75.60;99696.00;339074;29;1051;-72
2022/10/14 00:33:02;;;;;;;12.85;8.70;;;;;;;16.32;75.68;99699.63;338685;29;1056;-72
2022/10/14 00:33:14;;;;;;;13.68;8.98;;;;;;;16.32;75.73;99694.41;338635;29;1245;-72
2022/10/14 00:33:26;;;;;;;15.20;9.30;;;;;;;16.34;75.65;99700.41;338000;29;2008;-72
2022/10/14 00:33:38;;;;;;;15.32;9.35;;;;;;;16.32;75.58;99697.03;338516;29;1958;-72
2022/10/14 00:33:50;;;;;;;15.60;9.38;;;;;;;16.35;75.29;99691.59;337368;29;1251;-72
2022/10/14 00:34:03;;;;;;;16.75;9.35;;;;;;;16.37;75.32;99694.13;337715;29;2205;-72
2022/10/14 00:34:14;;;;;;;18.63;9.25;;;;;;;16.40;75.38;99698.34;338010;29;1803;-72
2022/10/14 00:34:27;;;;;;;19.15;9.07;;;;;;;16.36;75.63;99697.69;338035;29;1870;-72
2022/10/14 00:34:41;;;;;;;18.55;9.20;;;;;;;16.33;75.58;99693.44;338205;29;1254;-74
2022/10/14 00:34:53;;;;;;;18.40;9.65;;;;;;;16.33;75.75;99693.44;338584;29;1891;-76
2022/10/14 00:35:05;;;;;;;16.38;9.50;;;;;;;16.33;75.44;99695.22;337247;29;1935;-75
2022/10/14 00:35:17;;;;;;;13.85;9.18;;;;;;;16.29;75.23;99694.56;338675;29;1583;-76
2022/10/14 00:35:31;;;;;;;14.77;9.25;;;;;;;16.30;75.54;99693.63;337591;29;1710;-75
2022/10/14 00:35:43;;;;;;;14.10;9.10;;;;;;;16.28;75.47;99695.50;339714;29;1052;-74
2022/10/14 00:35:57;;;;;;;13.52;8.95;;;;;;;16.29;75.50;99697.16;339516;29;1068;-75
2022/10/14 00:36:11;;;;;;;13.90;8.88;;;;;;;16.27;75.76;99692.94;339530;29;1153;-72
2022/10/14 00:36:23;;;;;;;14.15;8.95;;;;;;;16.27;75.88;99693.78;338657;29;1548;-71
2022/10/14 00:36:35;;;;;;;15.60;9.38;;;;;;;16.28;75.88;99698.13;339433;29;1832;-72
2022/10/14 00:36:47;;;;;;;16.17;9.60;;;;;;;16.26;75.88;99697.38;339683;29;1071;-72
2022/10/14 00:36:59;;;;;;;15.40;9.48;;;;;;;16.27;75.75;99693.78;339669;29;1336;-73
2022/10/14 00:37:11;;;;;;;16.45;9.70;;;;;;;16.29;75.73;99697.16;339569;29;1084;-77
2022/10/14 00:37:23;;;;;;;16.73;9.68;;;;;;;16.28;75.59;99687.63;337778;29;1715;-73
2022/10/14 00:37:35;;;;;;;17.20;9.70;;;;;;;16.27;75.94;99693.78;337468;29;1944;-74
2022/10/14 00:37:47;;;;;;;14.93;9.20;;;;;;;16.30;75.81;99695.41;337489;29;1605;-75
2022/10/14 00:37:59;;;;;;;15.20;9.02;;;;;;;16.31;75.89;99687.44;338101;29;1673;-75
2022/10/14 00:38:11;;;;;;;15.13;9.10;;;;;;;16.32;75.96;99697.03;339680;29;960;-73
2022/10/14 00:38:23;;;;;;;15.30;9.00;;;;;;;16.35;75.83;99691.59;338410;29;1752;-73
2022/10/14 00:38:36;;;;;;;13.45;8.55;;;;;;;16.37;75.80;99694.13;337430;29;1813;-73
2022/10/14 00:38:48;;;;;;;13.73;8.70;;;;;;;16.36;75.87;99698.53;338175;29;1546;-73
2022/10/14 00:39:00;;;;;;;14.93;9.05;;;;;;;16.36;75.89;99692.44;338027;29;1800;-73
2022/10/14 00:39:12;;;;;;;15.65;9.30;;;;;;;16.37;75.81;99694.97;338923;29;1808;-73
2022/10/14 00:39:24;;;;;;;16.75;9.57;;;;;;;16.37;76.12;99689.72;339852;29;1300;-73
2022/10/14 00:39:36;;;;;;;16.35;9.63;;;;;;;16.38;75.50;99691.44;339736;29;1798;-73
2022/10/14 00:39:48;;;;;;;15.05;9.38;;;;;;;16.40;75.70;99693.09;339330;29;1051;-73
2022/10/14 00:40:07;;;;;;;15.23;9.13;;;;;;;16.40;75.60;99690.47;339752;29;1047;-74
2022/10/14 00:40:19;;;;;;;14.48;9.20;;;;;;;16.41;75.42;99694.81;338260;29;1693;-77
2022/10/14 00:40:31;;;;;;;15.65;9.50;;;;;;;16.41;75.42;99694.81;339146;29;1721;-74
2022/10/14 00:40:43;;;;;;;16.00;9.60;;;;;;;16.40;75.49;99693.09;338331;29;1394;-74
2022/10/14 00:40:55;;;;;;;18.92;9.90;;;;;;;16.38;75.64;99691.44;338759;29;1158;-75
2022/10/14 00:41:11;;;;;;;17.92;9.73;;;;;;;16.37;75.70;99691.50;338196;29;2278;-73
2022/10/14 00:41:29;;;;;;;15.95;9.48;;;;;;;16.35;75.58;99691.59;338117;29;1673;-75
2022/10/14 00:41:41;;;;;;;14.68;9.15;;;;;;;16.35;75.20;99686.34;338805;29;1880;-73
2022/10/14 00:41:53;;;;;;;14.32;8.98;;;;;;;16.38;75.34;99695.84;337468;29;1248;-73
2022/10/14 00:42:05;;;;;;;14.80;9.05;;;;;;;16.38;75.45;99688.81;337327;29;1047;-73
2022/10/14 00:42:17;;;;;;;16.02;9.23;;;;;;;16.40;75.45;99693.97;338315;29;1240;-73
2022/10/14 00:42:32;;;;;;;14.25;9.05;;;;;;;16.42;75.42;99692.09;339035;29;1600;-73
2022/10/14 00:42:44;;;;;;;13.90;9.18;;;;;;;16.44;75.36;99692.00;338303;29;1105;-73
2022/10/14 00:42:56;;;;;;;14.18;9.32;;;;;;;16.44;75.50;99690.25;339032;29;1112;-75
2022/10/14 00:43:12;;;;;;;14.15;9.65;;;;;;;16.45;75.56;99693.72;340074;29;1301;-75
2022/10/14 00:43:26;;;;;;;15.00;9.30;;;;;;;16.46;75.29;99692.75;338484;29;1523;-73
2022/10/14 00:44:04;;;;;;;16.73;9.02;;;;;;;16.47;75.51;99691.84;339069;29;1825;-75
2022/10/14 00:44:16;;;;;;;16.55;9.18;;;;;;;16.47;75.42;99697.94;337487;29;1670;-75
2022/10/14 00:44:28;;;;;;;15.05;9.20;;;;;;;16.44;75.62;99695.50;338039;29;2146;-74
2022/10/14 00:44:42;;;;;;;14.25;9.40;;;;;;;16.43;75.34;99692.94;338501;29;1890;-77
2022/10/14 00:45:05;;;;;;;15.02;9.60;;;;;;;16.41;75.21;99695.66;338526;29;1099;-72
2022/10/14 00:45:22;;;;;;;13.63;9.18;;;;;;;16.41;75.29;99694.81;338402;29;1911;-71
2022/10/14 00:45:34;;;;;;;13.07;9.02;;;;;;;16.43;75.21;99692.94;338652;29;1010;-72
2022/10/14 00:45:46;;;;;;;13.63;8.98;;;;;;;16.43;75.26;99692.94;339390;29;1042;-72
2022/10/14 00:45:58;;;;;;;13.25;9.00;;;;;;;16.44;75.40;99689.38;338748;29;1103;-72
2022/10/14 00:46:10;;;;;;;12.93;9.02;;;;;;;16.46;75.41;99703.25;338712;29;1209;-72
2022/10/14 00:46:24;;;;;;;12.57;9.05;;;;;;;16.46;75.37;99692.75;338267;29;1789;-71
2022/10/14 00:46:38;;;;;;;13.15;9.20;;;;;;;16.46;75.33;99692.75;337510;29;1097;-71
2022/10/14 00:46:51;;;;;;;13.90;9.45;;;;;;;16.45;75.12;99691.91;338456;29;1068;-73
2022/10/14 00:47:03;;;;;;;12.93;9.32;;;;;;;16.46;75.24;99695.38;337734;29;1891;-73
2022/10/14 00:47:15;;;;;;;11.05;8.73;;;;;;;16.47;75.24;99694.47;338396;29;1081;-73
2022/10/14 00:47:28;;;;;;;10.73;8.32;;;;;;;16.45;75.41;99696.34;337412;29;2075;-73
2022/10/14 00:47:42;;;;;;;11.38;8.40;;;;;;;16.47;75.41;99694.47;339214;29;1460;-73
2022/10/14 00:47:54;;;;;;;12.65;9.07;;;;;;;16.46;75.27;99692.75;338459;29;1869;-73
2022/10/14 00:48:08;;;;;;;15.00;9.45;;;;;;;16.46;75.35;99690.13;338831;29;1080;-73
2022/10/14 00:48:23;;;;;;;14.57;9.02;;;;;;;16.47;75.33;99690.06;338556;29;1728;-73
2022/10/14 00:48:35;;;;;;;12.93;9.10;;;;;;;16.47;75.25;99689.22;338583;29;1779;-73
2022/10/14 00:48:47;;;;;;;12.88;9.20;;;;;;;16.46;75.30;99690.13;337541;29;1046;-73
2022/10/14 00:49:07;;;;;;;13.52;9.18;;;;;;;16.48;75.46;99685.66;337885;29;1704;-73
2022/10/14 00:49:25;;;;;;;15.73;9.48;;;;;;;16.48;75.25;99697.00;337816;29;1190;-74
2022/10/14 00:49:40;;;;;;;15.82;9.52;;;;;;;16.48;75.51;99690.88;338406;29;1062;-74
2022/10/14 00:49:52;;;;;;;16.10;9.40;;;;;;;16.47;75.31;99694.47;338373;29;1149;-74
2022/10/14 00:50:04;;;;;;;14.23;9.48;;;;;;;16.47;75.32;99690.06;338679;29;1020;-74
2022/10/14 00:50:18;;;;;;;13.80;9.23;;;;;;;16.49;75.21;99692.59;339603;29;1326;-76
2022/10/14 00:50:31;;;;;;;11.98;9.07;;;;;;;16.48;75.17;99691.75;338126;29;1813;-75
2022/10/14 00:50:45;;;;;;;12.48;9.00;;;;;;;16.50;75.19;99686.41;337681;29;1983;-75
2022/10/14 00:50:57;;;;;;;13.48;9.15;;;;;;;16.51;75.37;99690.72;337362;29;1057;-74
2022/10/14 00:51:09;;;;;;;12.90;9.13;;;;;;;16.53;75.55;99688.88;338486;29;1043;-75
2022/10/14 00:51:22;;;;;;;12.52;9.35;;;;;;;16.51;75.81;99691.56;337831;29;2215;-74
2022/10/14 00:51:35;;;;;;;12.82;9.38;;;;;;;16.53;75.55;99691.50;337475;29;1801;-73
2022/10/14 00:52:01;;;;;;;12.27;9.30;;;;;;;16.52;75.62;99689.78;338264;29;1795;-73
2022/10/14 00:52:18;;;;;;;12.15;8.93;;;;;;;16.52;75.63;99689.78;338416;29;1071;-75
2022/10/14 00:52:30;;;;;;;13.32;8.82;;;;;;;16.51;75.72;99690.72;338111;29;1648;-74
2022/10/14 00:52:43;;;;;;;13.52;8.82;;;;;;;16.51;75.92;99691.56;337488;29;1638;-75
2022/10/14 00:52:55;;;;;;;14.38;9.00;;;;;;;16.50;75.91;99686.41;338214;29;1044;-75
2022/10/14 00:53:09;;;;;;;13.73;9.15;;;;;;;16.48;76.20;99691.75;338008;29;1342;-75
2022/10/14 00:53:21;;;;;;;13.35;9.07;;;;;;;16.49;75.89;99689.97;337183;29;1682;-76
2022/10/14 00:53:33;;;;;;;13.60;9.00;;;;;;;16.48;75.93;99690.88;338604;29;1967;-74
2022/10/14 00:53:46;;;;;;;14.40;9.00;;;;;;;16.45;76.13;99689.28;338116;29;1060;-73
2022/10/14 00:53:58;;;;;;;14.30;9.20;;;;;;;16.47;76.31;99689.22;337588;29;2146;-73
2022/10/14 00:54:13;;;;;;;15.85;9.52;;;;;;;16.46;76.11;99687.50;338365;29;1756;-73
2022/10/14 00:54:32;;;;;;;14.25;9.52;;;;;;;16.47;76.05;99692.69;337556;29;1712;-73
2022/10/14 00:54:53;;;;;;;13.00;9.48;;;;;;;16.49;76.21;99692.59;338232;29;1077;-73
2022/10/14 00:55:11;;;;;;;14.00;9.60;;;;;;;16.46;75.88;99687.50;338409;29;1185;-73
2022/10/14 00:55:23;;;;;;;13.82;9.02;;;;;;;16.45;76.14;99691.09;337854;29;1825;-71
2022/10/14 00:55:37;;;;;;;14.18;9.15;;;;;;;16.47;76.19;99683.97;338664;29;2277;-71
2022/10/14 00:55:49;;;;;;;14.95;9.40;;;;;;;16.45;76.43;99688.47;337180;29;1460;-71
2022/10/14 00:56:03;;;;;;;15.20;9.30;;;;;;;16.46;76.38;99693.63;337180;29;1270;-76
2022/10/14 00:56:18;;;;;;;16.35;9.43;;;;;;;16.47;76.33;99690.06;337490;29;1065;-74
2022/10/14 00:56:31;;;;;;;16.05;9.50;;;;;;;16.48;76.28;99689.13;337939;29;1713;-74
2022/10/14 00:56:44;;;;;;;15.02;9.48;;;;;;;16.49;76.42;99688.19;337144;29;1632;-73
2022/10/14 00:56:56;;;;;;;15.48;9.43;;;;;;;16.50;76.35;99683.78;337139;29;1104;-73
2022/10/14 00:57:09;;;;;;;14.13;9.18;;;;;;;16.51;76.23;99686.31;337222;29;1068;-73
2022/10/14 00:57:23;;;;;;;12.93;9.15;;;;;;;16.50;76.07;99683.78;337405;29;1685;-73
2022/10/14 00:57:36;;;;;;;13.57;9.27;;;;;;;16.51;76.26;99682.88;338082;29;1741;-73
2022/10/14 00:57:48;;;;;;;13.35;9.13;;;;;;;16.52;76.31;99687.16;337272;29;1289;-74
2022/10/14 00:58:00;;;;;;;12.48;9.27;;;;;;;16.51;75.95;99680.25;336994;29;2118;-76
2022/10/14 00:58:12;;;;;;;11.77;9.32;;;;;;;16.51;76.13;99682.88;337162;29;1301;-75
2022/10/14 00:58:24;;;;;;;13.65;9.57;;;;;;;16.52;76.20;99679.28;337758;29;1660;-72
2022/10/14 00:58:37;;;;;;;15.38;9.55;;;;;;;16.51;76.00;99686.31;337808;29;1916;-71
2022/10/14 00:58:51;;;;;;;14.68;9.43;;;;;;;16.50;75.97;99683.78;339029;29;1612;-71
2022/10/14 00:59:04;;;;;;;14.52;9.38;;;;;;;16.49;75.76;99682.09;339429;29;1554;-74
2022/10/14 00:59:17;;;;;;;14.10;9.45;;;;;;;16.50;75.90;99683.78;339801;29;1318;-74
2022/10/14 00:59:31;;;;;;;13.63;9.48;;;;;;;16.50;75.80;99686.41;338680;29;1064;-76
2022/10/14 00:59:43;;;;;;;13.95;9.30;;;;;;;16.50;75.92;99686.41;338880;29;1055;-73
2022/10/14 01:00:03;;;;;;;13.65;9.10;;;;;;;16.49;75.85;99682.94;338599;29;1186;-73
2022/10/14 01:00:17;;;;;;;15.43;9.60;;;;;;;16.47;76.11;99683.97;337814;29;1593;-75
2022/10/14 01:00:30;;;;;;;14.98;9.80;;;;;;;16.49;76.16;99682.09;337396;29;1034;-73
2022/10/14 01:00:42;;;;;;;15.40;9.52;;;;;;;16.50;76.17;99683.78;337568;29;1227;-72
2022/10/14 01:00:53;;;;;;;15.52;9.35;;;;;;;16.49;76.09;99682.94;337437;29;1011;-73
2022/10/14 01:01:06;;;;;;;14.57;9.43;;;;;;;16.51;76.08;99688.09;337573;29;1039;-73
2022/10/14 01:01:18;;;;;;;13.45;9.77;;;;;;;16.53;76.11;99683.63;338074;29;1413;-72
2022/10/14 01:01:31;;;;;;;13.00;9.57;;;;;;;16.53;76.13;99691.50;338927;29;1159;-72
2022/10/14 01:01:43;;;;;;;12.82;9.43;;;;;;;16.57;76.29;99691.22;338372;29;1036;-72
2022/10/14 01:01:55;;;;;;;12.98;9.18;;;;;;;16.60;75.82;99695.47;338108;29;1826;-72
2022/10/14 01:02:08;;;;;;;14.75;9.20;;;;;;;16.61;75.91;99681.41;337998;29;1795;-72
2022/10/14 01:02:21;;;;;;;15.20;9.20;;;;;;;16.62;75.92;99683.09;338258;29;2123;-74